Time;durP1;ratioP1;P1;durP2;ratioP2;P2;SDS_P1;SDS_P2;PMS_P1;PMS_P2;Temp;Humidity;BMP_temperature;BMP_pressure;BME280_temperature;BME280_humidity;BME280_pressure;Samples;Min_cycle;Max_cycle;Signal;HPM_P1;HPM_P2
2022/12/11 00:02:00;;;;;;;128.68;36.28;;;;;;;-0.84;100.00;101173.81;5025259;28;20032;-89
2022/12/11 00:04:25;;;;;;;118.63;31.73;;;;;;;-0.81;100.00;101178.16;5032507;28;20571;-89
2022/12/11 00:06:51;;;;;;;121.45;34.30;;;;;;;-0.81;100.00;101179.03;5033301;28;20041;-90
2022/12/11 00:09:17;;;;;;;132.60;34.10;;;;;;;-0.76;100.00;101177.44;5032857;28;20100;-90
2022/12/11 00:11:43;;;;;;;128.00;34.17;;;;;;;-0.81;100.00;101171.34;5025102;28;20030;-89
2022/12/11 00:14:08;;;;;;;111.75;30.23;;;;;;;-0.85;100.00;101161.84;5026994;28;20032;-90
2022/12/11 00:16:34;;;;;;;119.03;32.85;;;;;;;-0.81;100.00;101173.06;5032611;28;20025;-89
2022/12/11 00:18:59;;;;;;;121.18;34.22;;;;;;;-0.75;100.00;101173.22;5032646;28;20032;-89
2022/12/11 00:21:25;;;;;;;118.63;32.22;;;;;;;-0.79;100.00;101172.25;5018958;28;20025;-89
2022/12/11 00:23:50;;;;;;;132.02;33.15;;;;;;;-0.77;100.00;101172.31;5033372;28;20025;-90
2022/12/11 00:26:16;;;;;;;123.28;34.03;;;;;;;-0.76;100.00;101169.78;5030205;28;20083;-91
2022/12/11 00:28:43;;;;;;;121.25;32.92;;;;;;;-0.73;100.00;101177.53;5030328;28;20033;-90
2022/12/11 00:31:13;;;;;;;117.68;32.50;;;;;;;-0.75;100.00;101171.53;5032427;28;20036;-90
2022/12/11 00:33:38;;;;;;;121.40;33.00;;;;;;;-0.74;100.00;101168.13;5031665;28;20071;-90
2022/12/11 00:36:16;;;;;;;112.05;32.17;;;;;;;-0.70;100.00;101176.75;5032133;28;20401;-90
2022/12/11 00:38:42;;;;;;;109.03;31.60;;;;;;;-0.73;100.00;101171.56;5027565;28;20076;-91
2022/12/11 00:41:08;;;;;;;115.95;33.17;;;;;;;-0.75;100.00;101168.97;5021144;28;20045;-90
2022/12/11 00:43:33;;;;;;;114.78;31.27;;;;;;;-0.79;100.00;101163.69;5030340;28;20120;-90
2022/12/11 00:45:59;;;;;;;107.20;32.53;;;;;;;-0.79;100.00;101162.00;5032291;28;20465;-90
2022/12/11 00:48:24;;;;;;;116.93;33.55;;;;;;;-0.77;100.00;101160.38;5030874;28;20088;-91
2022/12/11 00:50:50;;;;;;;103.18;31.45;;;;;;;-0.93;100.00;101137.72;5031716;28;20422;-91
2022/12/11 00:53:15;;;;;;;112.82;31.80;;;;;;;-0.70;100.00;101171.66;5031640;28;20456;-90
2022/12/11 00:55:41;;;;;;;110.70;30.85;;;;;;;-0.71;100.00;101167.34;5029346;28;20033;-91
2022/12/11 00:58:07;;;;;;;105.95;31.13;;;;;;;-0.67;100.00;101176.84;5031732;28;20018;-91
2022/12/11 01:00:33;;;;;;;114.57;32.45;;;;;;;-0.67;100.00;101166.59;5030787;28;20026;-91
2022/12/11 01:02:58;;;;;;;106.93;30.35;;;;;;;-0.77;100.00;101151.81;5026230;28;20030;-90
2022/12/11 01:05:23;;;;;;;98.32;31.85;;;;;;;-0.67;100.00;101161.47;5029445;28;20465;-90
2022/12/11 01:07:49;;;;;;;101.38;30.65;;;;;;;-0.64;100.00;101168.38;5028035;28;20101;-91
2022/12/11 01:10:23;;;;;;;105.75;32.42;;;;;;;-0.65;100.00;101162.41;5020840;28;20029;-90
2022/12/11 01:13:05;;;;;;;93.55;29.48;;;;;;;-0.62;100.00;101171.84;5028695;28;20053;-91
2022/12/11 01:15:39;;;;;;;93.60;29.42;;;;;;;-0.65;100.00;101158.97;5029695;28;20083;-91
2022/12/11 01:18:04;;;;;;;99.15;29.73;;;;;;;-0.65;100.00;101164.97;5032599;28;20018;-92
2022/12/11 01:20:30;;;;;;;97.57;29.55;;;;;;;-0.66;100.00;101162.34;5031035;28;20045;-91
2022/12/11 01:22:58;;;;;;;100.63;30.13;;;;;;;-0.61;100.00;101171.03;5027372;28;20034;-91
2022/12/11 01:25:24;;;;;;;101.35;31.92;;;;;;;-0.61;100.00;101171.03;5031431;28;20044;-91
2022/12/11 01:27:53;;;;;;;96.60;29.63;;;;;;;-0.64;100.00;101165.84;5032169;28;20069;-91
2022/12/11 01:30:20;;;;;;;92.85;29.55;;;;;;;-0.62;100.00;101177.84;5029671;28;20095;-91
2022/12/11 01:32:46;;;;;;;94.03;29.73;;;;;;;-0.61;100.00;101179.59;5032453;28;20143;-91
2022/12/11 01:35:12;;;;;;;87.63;30.08;;;;;;;-0.61;100.00;101171.91;5030765;28;20453;-91
2022/12/11 01:37:37;;;;;;;80.93;27.02;;;;;;;-0.62;100.00;101169.28;5032583;28;20068;-91
2022/12/11 01:40:07;;;;;;;85.20;28.25;;;;;;;-0.60;100.00;101172.75;5023142;28;20049;-90
2022/12/11 01:42:33;;;;;;;90.70;27.70;;;;;;;-0.59;100.00;101174.47;5029689;28;20029;-91
2022/12/11 01:45:29;;;;;;;81.38;28.15;;;;;;;-0.57;100.00;101175.41;5027498;28;20029;-91
2022/12/11 01:47:59;;;;;;;89.05;27.80;;;;;;;-0.60;100.00;101165.09;5016135;28;20040;-90
2022/12/11 01:50:25;;;;;;;91.00;28.58;;;;;;;-0.59;100.00;101165.13;5033033;28;20139;-90
2022/12/11 01:52:51;;;;;;;89.57;30.00;;;;;;;-0.61;100.00;101156.53;5035582;28;20042;-91
2022/12/11 01:55:17;;;;;;;76.30;28.02;;;;;;;-0.63;100.00;101152.19;5034970;28;20125;-90
2022/12/11 01:57:46;;;;;;;87.70;27.85;;;;;;;-0.57;100.00;101155.78;5035002;28;20427;-92
2022/12/11 02:00:12;;;;;;;88.40;27.85;;;;;;;-0.57;100.00;101150.66;5035604;28;20022;-91
2022/12/11 02:02:37;;;;;;;84.47;30.02;;;;;;;-0.57;100.00;101157.47;5035378;28;20112;-90
2022/12/11 02:05:05;;;;;;;87.85;29.35;;;;;;;-0.57;100.00;101160.91;5033890;28;20037;-91
2022/12/11 02:07:39;;;;;;;93.93;28.23;;;;;;;-0.55;100.00;101163.53;5034925;28;20496;-91
2022/12/11 02:10:05;;;;;;;89.65;28.75;;;;;;;-0.55;100.00;101154.16;5035624;28;20026;-90
2022/12/11 02:12:38;;;;;;;88.35;27.25;;;;;;;-0.54;100.00;101162.69;5034430;28;20428;-91
2022/12/11 02:15:21;;;;;;;81.85;28.15;;;;;;;-0.52;100.00;101161.91;5034417;28;20100;-91
2022/12/11 02:18:28;;;;;;;87.95;27.75;;;;;;;-0.51;100.00;101162.78;5034689;28;20040;-91
2022/12/11 02:21:12;;;;;;;80.22;26.73;;;;;;;-0.52;100.00;101159.34;5028727;28;20038;-91
2022/12/11 02:23:56;;;;;;;79.30;26.60;;;;;;;-0.52;100.00;101155.94;5022902;28;20481;-90
2022/12/11 02:26:44;;;;;;;83.45;26.92;;;;;;;-0.56;100.00;101151.53;5033736;28;20038;-91
2022/12/11 02:29:20;;;;;;;85.07;26.70;;;;;;;-0.58;100.00;101145.50;5035104;28;20030;-91
2022/12/11 02:32:07;;;;;;;73.88;27.20;;;;;;;-0.52;100.00;101150.81;5035073;28;20489;-91
2022/12/11 02:34:35;;;;;;;74.05;25.70;;;;;;;-0.52;100.00;101140.56;5030298;28;20033;-91
2022/12/11 02:37:06;;;;;;;76.20;26.30;;;;;;;-0.63;100.00;101126.59;5035026;28;20032;-90
2022/12/11 02:39:34;;;;;;;81.90;26.85;;;;;;;-0.54;100.00;101152.44;5025718;28;20029;-91
2022/12/11 02:42:02;;;;;;;70.00;26.02;;;;;;;-0.56;100.00;101149.81;5029823;28;20017;-90
2022/12/11 02:44:32;;;;;;;69.57;25.60;;;;;;;-0.54;100.00;101144.75;5030631;28;20030;-91
2022/12/11 02:46:58;;;;;;;74.13;25.60;;;;;;;-0.56;100.00;101144.69;5034277;28;20057;-91
2022/12/11 02:49:25;;;;;;;67.18;24.20;;;;;;;-0.53;100.00;101143.91;5020378;28;20025;-91
2022/12/11 02:51:52;;;;;;;64.53;25.05;;;;;;;-0.54;100.00;101148.19;5034754;28;20018;-91
2022/12/11 02:54:22;;;;;;;64.80;24.45;;;;;;;-0.52;100.00;101155.94;5032282;28;20068;-90
2022/12/11 02:56:57;;;;;;;62.35;22.92;;;;;;;-0.60;100.00;101144.59;5033477;28;20044;-91
2022/12/11 02:59:44;;;;;;;67.45;24.08;;;;;;;-0.58;100.00;101136.13;5034429;28;20064;-90
2022/12/11 03:02:12;;;;;;;60.65;23.05;;;;;;;-0.61;100.00;101125.81;5153289;23;20056;-91
2022/12/11 03:04:38;;;;;;;53.40;22.10;;;;;;;-0.57;100.00;101142.13;5013845;28;20026;-91
2022/12/11 03:07:10;;;;;;;54.45;21.05;;;;;;;-0.53;100.00;101144.78;5014805;28;20457;-91
2022/12/11 03:09:38;;;;;;;49.25;20.80;;;;;;;-0.52;100.00;101135.44;5013045;28;20026;-91
2022/12/11 03:12:05;;;;;;;56.28;21.70;;;;;;;-0.61;100.00;101119.81;5013055;28;20058;-91
2022/12/11 03:14:30;;;;;;;52.10;20.40;;;;;;;-0.58;100.00;101130.16;5012273;28;20582;-91
2022/12/11 03:17:00;;;;;;;48.17;19.35;;;;;;;-0.61;100.00;101119.81;5014795;28;20026;-90
2022/12/11 03:19:37;;;;;;;51.90;19.73;;;;;;;-0.54;100.00;101131.97;5013639;28;20433;-92
2022/12/11 03:22:14;;;;;;;44.03;19.02;;;;;;;-0.57;100.00;101126.75;5013911;28;20040;-91
2022/12/11 03:24:59;;;;;;;41.75;18.73;;;;;;;-0.56;100.00;101137.03;5013795;28;20113;-91
2022/12/11 03:27:54;;;;;;;47.97;19.42;;;;;;;-0.55;100.00;101130.22;5003561;28;20045;-92
2022/12/11 03:30:21;;;;;;;;;;;;;;;-0.53;100.00;101128.56;5010763;28;20026;-91
2022/12/11 03:32:52;;;;;;;43.17;17.77;;;;;;;-0.59;100.00;101126.72;5014353;28;19924;-91
2022/12/11 03:35:23;;;;;;;44.55;18.85;;;;;;;-0.58;100.00;101131.00;5009574;28;20116;-91
2022/12/11 03:37:52;;;;;;;41.47;17.88;;;;;;;-0.59;100.00;101124.16;5013506;28;20104;-90
2022/12/11 03:40:20;;;;;;;42.05;18.48;;;;;;;-0.61;100.00;101118.13;5012619;28;20567;-90
2022/12/11 03:42:50;;;;;;;44.30;18.63;;;;;;;-0.63;100.00;101108.66;5012992;28;20132;-90
2022/12/11 03:45:17;;;;;;;44.75;18.73;;;;;;;-0.62;100.00;101107.81;5012423;28;20052;-90
2022/12/11 03:47:44;;;;;;;43.30;17.27;;;;;;;-0.62;100.00;101115.50;5014095;28;20062;-91
2022/12/11 03:50:13;;;;;;;44.60;19.45;;;;;;;-0.61;100.00;101117.25;5013013;28;20022;-90
2022/12/11 03:52:44;;;;;;;44.55;18.10;;;;;;;-0.62;100.00;101108.72;5014001;28;20041;-90
2022/12/11 03:55:11;;;;;;;40.72;17.88;;;;;;;-0.67;100.00;101100.03;5012864;28;20544;-90
2022/12/11 03:57:37;;;;;;;45.83;18.33;;;;;;;-0.66;100.00;101086.41;5013082;28;20033;-91
2022/12/11 04:00:09;;;;;;;41.58;18.05;;;;;;;-0.65;100.00;101089.84;5013140;28;20026;-91
2022/12/11 04:02:34;;;;;;;45.20;17.73;;;;;;;-0.63;100.00;101091.59;4999472;28;20038;-92
2022/12/11 04:04:59;;;;;;;40.85;17.40;;;;;;;-0.67;100.00;101083.81;5012376;28;20465;-90
2022/12/11 04:07:25;;;;;;;38.67;17.73;;;;;;;-0.60;100.00;101101.91;5013122;28;20358;-90
2022/12/11 04:09:50;;;;;;;40.35;17.95;;;;;;;-0.64;100.00;101086.44;5012135;28;20033;-91
2022/12/11 04:12:15;;;;;;;39.90;17.10;;;;;;;-0.65;100.00;101100.09;5012780;28;20428;-90
2022/12/11 04:25:36;;;;;;;37.08;16.73;;;;;;;-0.61;100.00;101096.78;5012136;28;20084;-90
2022/12/11 04:28:02;;;;;;;43.53;17.27;;;;;;;-0.59;100.00;101098.56;5012604;28;20481;-91
2022/12/11 04:30:27;;;;;;;39.22;17.17;;;;;;;-0.56;100.00;101108.84;5011971;28;20038;-91
2022/12/11 04:32:53;;;;;;;36.47;17.20;;;;;;;-0.65;100.00;101082.16;5010757;28;20032;-90
2022/12/11 04:35:19;;;;;;;41.78;19.33;;;;;;;-0.55;100.00;101097.81;5012165;28;20080;-91
2022/12/11 04:37:44;;;;;;;42.15;18.00;;;;;;;-0.63;100.00;101088.19;5012828;28;20506;-90
2022/12/11 04:40:12;;;;;;;38.53;17.63;;;;;;;-0.56;100.00;101096.03;5012432;28;20021;-90
2022/12/11 04:42:38;;;;;;;41.22;17.23;;;;;;;-0.57;100.00;101090.91;5012990;28;20037;-91
2022/12/11 04:45:04;;;;;;;42.33;19.00;;;;;;;-0.58;100.00;101089.19;5012420;28;20039;-90
2022/12/11 04:47:30;;;;;;;41.22;18.42;;;;;;;-0.56;100.00;101093.47;5011948;28;20125;-89
2022/12/11 04:49:55;;;;;;;37.95;17.08;;;;;;;-0.62;100.00;101083.13;5013080;28;20117;-90
2022/12/11 04:52:21;;;;;;;47.22;20.98;;;;;;;-0.56;100.00;101088.34;5012851;28;20022;-89
2022/12/11 04:54:46;;;;;;;43.28;19.63;;;;;;;-0.58;100.00;101094.28;5011480;28;20033;-90
2022/12/11 04:57:11;;;;;;;47.10;19.25;;;;;;;-0.54;100.00;101096.09;5012507;28;20026;-90
2022/12/11 04:59:37;;;;;;;42.97;18.42;;;;;;;-0.57;100.00;101081.50;5012787;28;20044;-90
2022/12/11 05:02:03;;;;;;;44.22;18.40;;;;;;;-0.57;100.00;101078.09;5010232;28;20034;-90
2022/12/11 05:04:32;;;;;;;42.28;18.98;;;;;;;-0.56;100.00;101083.25;5011085;28;20037;-90
2022/12/11 05:06:58;;;;;;;42.28;18.27;;;;;;;-0.60;100.00;101066.06;5011831;28;20030;-91
2022/12/11 05:09:23;;;;;;;45.28;19.52;;;;;;;-0.61;100.00;101072.03;5012579;28;20030;-89
2022/12/11 05:11:48;;;;;;;40.58;18.52;;;;;;;-0.55;100.00;101079.88;5014364;28;20469;-91
2022/12/11 05:14:14;;;;;;;42.05;18.65;;;;;;;-0.58;100.00;101071.25;5013305;28;20084;-90
2022/12/11 05:16:39;;;;;;;39.67;19.05;;;;;;;-0.58;100.00;101074.66;5016529;28;20109;-89
2022/12/11 05:19:04;;;;;;;40.90;17.67;;;;;;;-0.53;100.00;101077.34;5016813;28;20050;-90
2022/12/11 05:21:29;;;;;;;43.67;19.45;;;;;;;-0.54;100.00;101080.72;5015877;28;20022;-89
2022/12/11 05:23:55;;;;;;;40.15;19.15;;;;;;;-0.58;100.00;101069.56;5015940;28;20030;-89
2022/12/11 05:26:20;;;;;;;41.15;18.17;;;;;;;-0.55;100.00;101074.75;5015858;28;20101;-89
2022/12/11 05:28:50;;;;;;;41.33;19.17;;;;;;;-0.55;100.00;101068.78;5016110;28;20033;-91
2022/12/11 05:31:18;;;;;;;38.20;17.67;;;;;;;-0.54;100.00;101073.06;5002990;28;20029;-89
2022/12/11 05:33:45;;;;;;;40.47;18.25;;;;;;;-0.54;100.00;101066.22;5015015;28;20026;-89
2022/12/11 05:36:20;;;;;;;41.17;17.77;;;;;;;-0.58;100.00;101053.31;5015303;28;20064;-90
2022/12/11 05:38:48;;;;;;;39.33;17.63;;;;;;;-0.56;100.00;101067.00;5016391;28;20032;-90
2022/12/11 05:41:17;;;;;;;40.05;18.25;;;;;;;-0.57;100.00;101066.16;5015949;28;20071;-90
2022/12/11 05:43:43;;;;;;;36.65;17.70;;;;;;;-0.57;100.00;101066.16;5014314;28;20041;-90
2022/12/11 05:46:16;;;;;;;36.30;16.40;;;;;;;-0.58;100.00;101058.44;5015627;28;20469;-90
2022/12/11 05:48:43;;;;;;;35.35;17.55;;;;;;;-0.61;100.00;101059.22;5015998;28;20477;-90
2022/12/11 05:51:09;;;;;;;35.75;17.05;;;;;;;-0.56;100.00;101072.13;5015475;28;20033;-90
2022/12/11 05:53:36;;;;;;;39.10;17.52;;;;;;;-0.60;100.00;101065.22;5015252;28;20018;-90
2022/12/11 05:56:04;;;;;;;35.13;16.60;;;;;;;-0.56;100.00;101074.69;5015851;28;20038;-90
2022/12/11 05:58:30;;;;;;;35.13;17.23;;;;;;;-0.57;100.00;101076.41;5015407;28;20366;-90
2022/12/11 06:03:30;;;;;;;34.80;16.75;;;;;;;-0.56;100.00;101080.69;5183844;23;20057;-90
2022/12/11 06:05:56;;;;;;;33.50;15.88;;;;;;;-0.55;100.00;101082.44;4996373;28;20022;-90
2022/12/11 06:08:21;;;;;;;35.42;16.10;;;;;;;-0.54;100.00;101081.59;4995503;28;20022;-89
2022/12/11 06:10:49;;;;;;;37.75;17.13;;;;;;;-0.53;100.00;101077.34;4995177;28;20153;-90
2022/12/11 06:13:16;;;;;;;36.22;17.02;;;;;;;-0.53;100.00;101079.91;5002398;28;20065;-91
2022/12/11 06:15:41;;;;;;;35.13;17.25;;;;;;;-0.54;100.00;101076.47;4995954;28;20037;-90
2022/12/11 06:18:06;;;;;;;35.55;15.45;;;;;;;-0.59;100.00;101072.06;4995562;28;20354;-90
2022/12/11 06:20:33;;;;;;;34.20;16.98;;;;;;;-0.57;100.00;101070.41;4996591;28;20032;-90
2022/12/11 06:22:59;;;;;;;34.30;17.33;;;;;;;-0.54;100.00;101076.47;4995107;28;20026;-89
2022/12/11 06:25:24;;;;;;;35.83;16.13;;;;;;;-0.55;100.00;101069.63;4994834;28;20042;-90
2022/12/11 06:27:49;;;;;;;31.33;16.05;;;;;;;-0.56;100.00;101067.88;4996038;28;20026;-90
2022/12/11 06:30:15;;;;;;;35.17;16.00;;;;;;;-0.51;100.00;101070.56;4994713;28;20030;-90
2022/12/11 06:32:41;;;;;;;35.30;16.27;;;;;;;-0.55;100.00;101061.09;4993739;28;20023;-90
2022/12/11 06:35:06;;;;;;;35.35;16.58;;;;;;;-0.52;100.00;101072.28;4995586;28;20080;-91
2022/12/11 06:37:33;;;;;;;33.42;16.80;;;;;;;-0.58;100.00;101063.56;4995212;28;20026;-89
2022/12/11 06:39:59;;;;;;;37.38;16.63;;;;;;;-0.52;100.00;101071.41;5161027;23;20128;-90
2022/12/11 06:42:24;;;;;;;33.70;16.52;;;;;;;-0.59;100.00;101061.81;5033452;28;20116;-91
2022/12/11 06:44:49;;;;;;;33.33;15.57;;;;;;;-0.55;100.00;101066.22;5034709;28;20599;-90
2022/12/11 06:47:15;;;;;;;33.28;16.15;;;;;;;-0.57;100.00;101062.72;5032040;28;20030;-90
2022/12/11 06:49:40;;;;;;;33.03;15.95;;;;;;;-0.52;100.00;101061.16;5085320;23;20084;-90
2022/12/11 06:52:05;;;;;;;32.75;15.57;;;;;;;-0.52;100.00;101058.59;5014179;28;20025;-90
2022/12/11 06:54:31;;;;;;;32.40;15.30;;;;;;;-0.55;100.00;101045.72;5013564;28;20092;-90
2022/12/11 06:56:56;;;;;;;33.45;15.80;;;;;;;-0.50;100.00;101057.78;5014319;28;20470;-90
2022/12/11 06:59:21;;;;;;;33.40;15.70;;;;;;;-0.50;100.00;101065.47;5014289;28;20052;-90
2022/12/11 07:01:47;;;;;;;33.95;15.35;;;;;;;-0.54;100.00;101042.31;5014137;28;20104;-90
2022/12/11 07:04:12;;;;;;;36.10;16.15;;;;;;;-0.50;100.00;101068.03;5014795;28;20033;-90
2022/12/11 07:06:37;;;;;;;35.47;16.55;;;;;;;-0.53;100.00;101064.53;5013228;28;20069;-90
2022/12/11 07:09:05;;;;;;;32.30;15.80;;;;;;;-0.50;100.00;101078.28;5012361;28;20025;-90
2022/12/11 07:11:30;;;;;;;35.13;16.10;;;;;;;-0.55;100.00;101064.50;5014444;28;20026;-90
2022/12/11 07:13:58;;;;;;;35.97;15.95;;;;;;;-0.53;100.00;101074.78;5000032;28;20382;-90
2022/12/11 07:16:24;;;;;;;34.53;15.88;;;;;;;-0.54;100.00;101067.94;5013533;28;20029;-90
2022/12/11 07:18:50;;;;;;;34.88;16.65;;;;;;;-0.50;100.00;101080.84;5014538;28;20424;-90
2022/12/11 07:21:17;;;;;;;33.70;16.02;;;;;;;-0.63;100.00;101050.63;5013519;28;20108;-90
2022/12/11 07:23:42;;;;;;;32.40;16.15;;;;;;;-0.50;100.00;101090.22;5014089;28;20508;-91
2022/12/11 07:26:11;;;;;;;35.75;16.55;;;;;;;-0.51;100.00;101097.03;5014651;28;20044;-91
2022/12/11 07:28:36;;;;;;;33.50;15.18;;;;;;;-0.50;100.00;101097.91;5010950;28;20116;-90
2022/12/11 07:31:10;;;;;;;33.83;15.93;;;;;;;-0.48;100.00;101093.69;5014191;28;20370;-90
2022/12/11 07:33:35;;;;;;;;;;;;;;;-0.44;100.00;101089.53;5014763;28;20053;-90
2022/12/11 07:36:11;;;;;;;35.50;16.17;;;;;;;-0.50;100.00;101093.66;5011947;28;19983;-90
2022/12/11 07:38:37;;;;;;;35.30;15.25;;;;;;;-0.58;100.00;101082.34;5012998;28;20473;-89
2022/12/11 07:41:11;;;;;;;36.75;18.02;;;;;;;-0.49;100.00;101087.72;5014152;28;20025;-90
2022/12/11 07:43:36;;;;;;;34.15;16.10;;;;;;;-0.45;100.00;101091.22;5013501;28;20025;-91
2022/12/11 07:46:04;;;;;;;38.63;17.27;;;;;;;-0.45;100.00;101091.22;5002501;28;20122;-90
2022/12/11 07:48:29;;;;;;;36.03;16.80;;;;;;;-0.44;100.00;101086.97;5010807;28;20421;-90
2022/12/11 07:50:57;;;;;;;35.20;16.70;;;;;;;-0.50;100.00;101080.84;5012367;28;20042;-90
2022/12/11 07:53:23;;;;;;;36.92;16.90;;;;;;;-0.44;100.00;101080.13;5013583;28;20030;-89
2022/12/11 07:55:48;;;;;;;40.10;18.05;;;;;;;-0.48;100.00;101078.34;5012946;28;20034;-90
2022/12/11 07:58:13;;;;;;;40.30;17.30;;;;;;;-0.43;100.00;101091.25;5012376;28;20413;-91
2022/12/11 08:00:39;;;;;;;37.40;16.92;;;;;;;-0.49;100.00;101079.16;5012140;28;20026;-90
2022/12/11 08:03:04;;;;;;;33.15;16.90;;;;;;;-0.45;100.00;101085.25;5013214;28;20057;-89
2022/12/11 08:05:29;;;;;;;38.85;17.65;;;;;;;-0.41;100.00;101084.47;5013602;28;20041;-90
2022/12/11 08:07:55;;;;;;;36.67;17.83;;;;;;;-0.42;100.00;101090.44;5012811;28;20065;-90
2022/12/11 08:10:21;;;;;;;41.42;18.88;;;;;;;-0.50;100.00;101068.03;5012609;28;20088;-90
2022/12/11 08:12:47;;;;;;;42.50;19.67;;;;;;;-0.49;100.00;101080.03;5013977;28;20072;-89
2022/12/11 08:15:12;;;;;;;37.63;17.15;;;;;;;-0.40;100.00;101094.75;5011491;28;20026;-90
2022/12/11 08:17:37;;;;;;;37.17;18.13;;;;;;;-0.42;100.00;101095.56;5012731;28;20374;-91
2022/12/11 08:20:04;;;;;;;42.30;18.52;;;;;;;-0.40;100.00;101089.63;5013889;28;20037;-91
2022/12/11 08:22:29;;;;;;;40.65;17.15;;;;;;;-0.44;100.00;101080.13;5013567;28;20053;-90
2022/12/11 08:24:54;;;;;;;37.40;18.65;;;;;;;-0.40;100.00;101087.06;5010939;28;20057;-90
2022/12/11 08:27:20;;;;;;;35.65;17.15;;;;;;;-0.36;100.00;101086.34;5011033;28;20046;-91
2022/12/11 08:29:46;;;;;;;39.53;18.15;;;;;;;-0.40;100.00;101087.06;5013798;28;20087;-90
2022/12/11 08:32:12;;;;;;;39.22;17.33;;;;;;;-0.42;100.00;101077.63;5012003;28;20064;-90
2022/12/11 08:34:38;;;;;;;41.22;18.42;;;;;;;-0.43;100.00;101083.56;5013478;28;20022;-91
2022/12/11 08:37:03;;;;;;;35.83;17.13;;;;;;;-0.37;100.00;101099.94;5006891;28;20026;-90
2022/12/11 08:39:29;;;;;;;36.17;17.27;;;;;;;-0.34;100.00;101096.59;5014132;28;20026;-90
2022/12/11 08:41:54;;;;;;;34.92;17.10;;;;;;;-0.44;100.00;101075.00;5013472;28;20014;-90
2022/12/11 08:44:19;;;;;;;43.67;18.48;;;;;;;-0.34;100.00;101092.34;5011712;28;20386;-90
2022/12/11 08:46:45;;;;;;;37.85;17.55;;;;;;;-0.32;100.00;101089.84;5010777;28;20153;-90
2022/12/11 08:49:10;;;;;;;39.58;17.63;;;;;;;-0.28;100.00;101091.63;5012522;28;20030;-91
2022/12/11 08:51:36;;;;;;;38.30;17.15;;;;;;;-0.29;100.00;101083.09;4999270;28;20054;-90
2022/12/11 08:54:01;;;;;;;37.50;17.95;;;;;;;-0.25;100.00;101084.03;5012211;28;20069;-90
2022/12/11 08:56:28;;;;;;;38.08;17.17;;;;;;;-0.24;100.00;101084.03;5010310;28;20128;-89
2022/12/11 08:58:54;;;;;;;36.58;16.88;;;;;;;-0.22;100.00;101083.25;5011347;28;20105;-89
2022/12/11 09:01:22;;;;;;;36.00;17.52;;;;;;;-0.27;100.00;101078.84;5011144;28;20037;-90
2022/12/11 09:03:49;;;;;;;35.05;17.38;;;;;;;-0.27;100.00;101081.41;5008557;28;20037;-86
2022/12/11 09:06:16;;;;;;;36.50;17.45;;;;;;;-0.22;100.00;101086.66;5000881;28;20026;-87
2022/12/11 09:08:44;;;;;;;36.65;16.90;;;;;;;-0.21;100.00;101080.69;5011952;28;20037;-86
2022/12/11 09:11:12;;;;;;;36.92;17.63;;;;;;;-0.28;100.00;101061.75;5011890;28;20560;-87
2022/12/11 09:13:38;;;;;;;38.03;17.23;;;;;;;-0.16;100.00;101080.81;5011917;28;20072;-85
2022/12/11 09:16:08;;;;;;;38.00;16.40;;;;;;;-0.17;100.00;101085.06;5009455;28;20477;-85
2022/12/11 09:18:33;;;;;;;36.55;16.48;;;;;;;-0.17;100.00;101081.63;5011752;28;20041;-84
2022/12/11 09:21:04;;;;;;;33.53;16.20;;;;;;;-0.15;100.00;101085.13;5006256;28;20022;-85
2022/12/11 09:23:29;;;;;;;36.25;17.63;;;;;;;-0.16;100.00;101080.81;5009504;28;20022;-85
2022/12/11 09:25:55;;;;;;;39.00;17.63;;;;;;;-0.17;100.00;101087.63;5011021;28;20362;-84
2022/12/11 09:28:21;;;;;;;38.20;17.83;;;;;;;-0.15;100.00;101087.69;5008950;28;20037;-85
2022/12/11 09:30:46;;;;;;;43.05;17.98;;;;;;;-0.18;100.00;101077.34;5007850;28;20104;-86
2022/12/11 09:33:11;;;;;;;39.80;17.05;;;;;;;-0.22;100.00;101071.28;5009106;28;20061;-87
2022/12/11 09:35:36;;;;;;;37.90;18.10;;;;;;;-0.16;100.00;101083.41;5006178;28;20072;-85
2022/12/11 09:38:02;;;;;;;37.72;17.63;;;;;;;-0.15;100.00;101075.72;5011766;28;20022;-86
2022/12/11 09:40:28;;;;;;;37.03;16.70;;;;;;;-0.14;100.00;101074.03;5011058;28;20370;-87
2022/12/11 09:43:01;;;;;;;36.72;17.55;;;;;;;-0.19;100.00;101066.25;5011913;28;20444;-87
2022/12/11 09:45:26;;;;;;;40.35;18.65;;;;;;;-0.16;100.00;101068.88;5011037;28;20481;-88
2022/12/11 09:47:55;;;;;;;37.78;17.50;;;;;;;-0.12;100.00;101068.13;5010290;28;20041;-87
2022/12/11 09:50:27;;;;;;;38.30;17.08;;;;;;;-0.09;100.00;101069.88;5010676;28;20046;-86
2022/12/11 09:53:15;;;;;;;41.33;17.77;;;;;;;-0.10;100.00;101071.59;5010630;28;20072;-86
2022/12/11 09:56:15;;;;;;;38.40;16.67;;;;;;;-0.08;100.00;101067.34;5005467;28;20080;-87
2022/12/11 09:58:57;;;;;;;34.28;15.98;;;;;;;-0.03;100.00;101062.34;5013600;28;20026;-89
2022/12/11 10:01:28;;;;;;;37.92;16.75;;;;;;;0.03;100.00;101061.59;5017217;28;20379;-88
2022/12/11 10:04:27;;;;;;;33.38;15.38;;;;;;;0.09;100.00;101057.47;5013536;28;20026;-89
2022/12/11 10:07:01;;;;;;;38.13;17.60;;;;;;;0.09;100.00;101064.31;5014000;28;20492;-89
2022/12/11 10:09:48;;;;;;;36.88;17.38;;;;;;;-0.01;100.00;101045.28;5013420;28;20069;-87
2022/12/11 10:12:37;;;;;;;38.30;16.92;;;;;;;0.15;100.00;101073.00;5013682;28;20116;-82
2022/12/11 10:15:39;;;;;;;37.20;16.63;;;;;;;0.16;100.00;101061.03;5013479;28;20030;-83
2022/12/11 10:18:12;;;;;;;32.92;15.93;;;;;;;0.10;100.00;101051.53;5007080;28;20409;-83
2022/12/11 10:20:39;;;;;;;35.42;17.50;;;;;;;0.15;100.00;101067.00;5015653;28;20014;-82
2022/12/11 10:23:14;;;;;;;34.67;16.38;;;;;;;0.10;100.00;101064.34;5011949;28;20038;-83
2022/12/11 10:25:43;;;;;;;36.45;16.92;;;;;;;0.10;100.00;101056.66;5010557;28;20478;-83
2022/12/11 10:28:16;;;;;;;34.15;16.48;;;;;;;0.18;100.00;101069.66;5014174;28;20436;-83
2022/12/11 10:31:07;;;;;;;32.38;15.52;;;;;;;0.17;100.00;101062.78;5014213;28;20029;-83
2022/12/11 10:33:44;;;;;;;33.83;15.90;;;;;;;0.08;100.00;101050.63;5015525;28;20084;-84
2022/12/11 10:36:17;;;;;;;33.70;15.20;;;;;;;0.11;100.00;101048.13;5015192;28;20018;-83
2022/12/11 10:38:44;;;;;;;;;;;;;;;0.20;100.00;101058.59;5013570;28;20092;-84
2022/12/11 10:41:17;;;;;;;31.23;15.55;;;;;;;0.14;100.00;101052.47;5015292;28;19916;-83
2022/12/11 10:43:44;;;;;;;34.28;15.45;;;;;;;0.10;100.00;101048.09;5012877;28;20029;-83
2022/12/11 10:46:19;;;;;;;32.35;15.45;;;;;;;0.12;100.00;101054.13;5014364;28;20046;-84
2022/12/11 10:48:53;;;;;;;33.90;15.70;;;;;;;0.16;100.00;101046.56;5013600;28;21978;-83
2022/12/11 10:51:32;;;;;;;32.17;15.70;;;;;;;0.15;100.00;101052.50;5006935;28;20042;-83
2022/12/11 10:54:33;;;;;;;36.47;16.20;;;;;;;0.15;100.00;101031.97;5000584;28;20040;-84
2022/12/11 10:57:01;;;;;;;32.97;15.73;;;;;;;0.32;100.00;101036.59;5008437;28;20065;-84
2022/12/11 10:59:35;;;;;;;29.98;15.57;;;;;;;0.40;100.00;101038.50;5012042;28;20428;-83
2022/12/11 11:02:02;;;;;;;33.72;17.25;;;;;;;0.44;100.00;101031.75;5003102;28;20511;-84
2022/12/11 11:04:35;;;;;;;32.60;17.02;;;;;;;0.52;100.00;101037.88;5014647;28;20358;-84
2022/12/11 11:07:18;;;;;;;37.13;17.20;;;;;;;0.66;100.00;101038.19;5009396;28;20721;-84
2022/12/11 11:09:44;;;;;;;33.25;17.45;;;;;;;0.66;100.00;101028.78;5013030;28;20296;-84
2022/12/11 11:12:26;;;;;;;32.83;16.65;;;;;;;0.80;100.00;101033.31;5012750;28;20018;-83
2022/12/11 11:15:06;;;;;;;36.78;17.73;;;;;;;0.81;100.00;101024.78;5012542;28;20104;-84
2022/12/11 11:17:39;;;;;;;33.95;16.85;;;;;;;0.86;100.00;101031.72;5012565;28;20021;-83
2022/12/11 11:20:13;;;;;;;38.77;17.57;;;;;;;0.91;100.00;101034.38;5014053;28;20018;-83
2022/12/11 11:22:44;;;;;;;35.08;15.90;;;;;;;0.92;100.00;101028.44;5012125;28;20296;-84
2022/12/11 11:25:21;;;;;;;36.20;16.35;;;;;;;0.92;100.00;101031.84;5013698;28;20129;-84